sensor_id;sensor_type;location;lat;lon;timestamp;P1;durP1;ratioP1;P2;durP2;ratioP2
66487;SDS011;53304;54.550;18.526;2023-07-08T00:00:55;5.15;;;2.03;;
66487;SDS011;53304;54.550;18.526;2023-07-08T00:03:21;4.78;;;1.88;;
66487;SDS011;53304;54.550;18.526;2023-07-08T00:05:47;4.57;;;1.90;;
66487;SDS011;53304;54.550;18.526;2023-07-08T00:08:16;3.97;;;1.73;;
66487;SDS011;53304;54.550;18.526;2023-07-08T00:10:46;2.67;;;1.83;;
66487;SDS011;53304;54.550;18.526;2023-07-08T00:13:13;6.43;;;1.73;;
66487;SDS011;53304;54.550;18.526;2023-07-08T00:15:41;4.50;;;1.90;;
66487;SDS011;53304;54.550;18.526;2023-07-08T00:18:17;3.92;;;1.95;;
66487;SDS011;53304;54.550;18.526;2023-07-08T00:20:45;3.80;;;1.83;;
66487;SDS011;53304;54.550;18.526;2023-07-08T00:23:14;3.45;;;1.70;;
66487;SDS011;53304;54.550;18.526;2023-07-08T00:25:39;4.25;;;2.08;;
66487;SDS011;53304;54.550;18.526;2023-07-08T00:28:12;5.30;;;2.28;;
66487;SDS011;53304;54.550;18.526;2023-07-08T00:30:46;3.58;;;1.80;;
66487;SDS011;53304;54.550;18.526;2023-07-08T00:33:12;2.55;;;1.65;;
66487;SDS011;53304;54.550;18.526;2023-07-08T00:35:42;2.80;;;1.75;;
66487;SDS011;53304;54.550;18.526;2023-07-08T00:38:14;3.38;;;1.90;;
66487;SDS011;53304;54.550;18.526;2023-07-08T00:48:57;3.30;;;1.60;;
66487;SDS011;53304;54.550;18.526;2023-07-08T00:51:23;6.22;;;2.10;;
66487;SDS011;53304;54.550;18.526;2023-07-08T00:53:49;5.35;;;2.00;;
66487;SDS011;53304;54.550;18.526;2023-07-08T00:56:18;3.42;;;1.70;;
66487;SDS011;53304;54.550;18.526;2023-07-08T01:01:35;3.58;;;1.92;;
66487;SDS011;53304;54.550;18.526;2023-07-08T01:04:06;3.20;;;1.70;;
66487;SDS011;53304;54.550;18.526;2023-07-08T01:06:39;2.17;;;1.48;;
66487;SDS011;53304;54.550;18.526;2023-07-08T01:09:09;5.20;;;1.95;;
66487;SDS011;53304;54.550;18.526;2023-07-08T01:11:39;4.25;;;1.75;;
66487;SDS011;53304;54.550;18.526;2023-07-08T01:14:05;4.82;;;1.90;;
66487;SDS011;53304;54.550;18.526;2023-07-08T01:16:35;2.65;;;1.80;;
66487;SDS011;53304;54.550;18.526;2023-07-08T01:19:03;3.80;;;1.70;;
66487;SDS011;53304;54.550;18.526;2023-07-08T01:24:02;4.82;;;2.00;;
66487;SDS011;53304;54.550;18.526;2023-07-08T01:26:35;3.10;;;1.65;;
66487;SDS011;53304;54.550;18.526;2023-07-08T01:29:06;3.05;;;1.80;;
66487;SDS011;53304;54.550;18.526;2023-07-08T01:31:34;4.40;;;1.70;;
66487;SDS011;53304;54.550;18.526;2023-07-08T01:34:02;2.88;;;1.70;;
66487;SDS011;53304;54.550;18.526;2023-07-08T01:36:34;3.53;;;1.77;;
66487;SDS011;53304;54.550;18.526;2023-07-08T01:39:04;2.17;;;1.40;;
66487;SDS011;53304;54.550;18.526;2023-07-08T01:41:30;2.88;;;1.70;;
66487;SDS011;53304;54.550;18.526;2023-07-08T01:43:58;4.22;;;1.73;;
66487;SDS011;53304;54.550;18.526;2023-07-08T01:46:26;7.05;;;1.95;;
66487;SDS011;53304;54.550;18.526;2023-07-08T01:48:57;2.78;;;1.73;;
66487;SDS011;53304;54.550;18.526;2023-07-08T01:51:27;4.15;;;1.65;;
66487;SDS011;53304;54.550;18.526;2023-07-08T01:53:55;5.88;;;1.80;;
66487;SDS011;53304;54.550;18.526;2023-07-08T01:56:23;3.55;;;1.67;;
66487;SDS011;53304;54.550;18.526;2023-07-08T01:58:53;3.65;;;1.50;;
66487;SDS011;53304;54.550;18.526;2023-07-08T02:01:26;2.53;;;1.70;;
66487;SDS011;53304;54.550;18.526;2023-07-08T02:03:56;3.60;;;1.83;;
66487;SDS011;53304;54.550;18.526;2023-07-08T02:06:21;4.18;;;1.80;;
66487;SDS011;53304;54.550;18.526;2023-07-08T02:08:46;3.20;;;1.70;;
66487;SDS011;53304;54.550;18.526;2023-07-08T02:11:12;3.90;;;1.63;;
66487;SDS011;53304;54.550;18.526;2023-07-08T02:13:40;5.18;;;1.60;;
66487;SDS011;53304;54.550;18.526;2023-07-08T02:16:06;5.20;;;1.95;;
66487;SDS011;53304;54.550;18.526;2023-07-08T02:18:34;3.17;;;1.58;;
66487;SDS011;53304;54.550;18.526;2023-07-08T02:20:59;3.58;;;1.75;;
66487;SDS011;53304;54.550;18.526;2023-07-08T02:23:27;5.18;;;1.70;;
66487;SDS011;53304;54.550;18.526;2023-07-08T02:25:55;4.50;;;1.73;;
66487;SDS011;53304;54.550;18.526;2023-07-08T02:28:21;3.58;;;1.80;;
66487;SDS011;53304;54.550;18.526;2023-07-08T02:30:46;2.55;;;1.42;;
66487;SDS011;53304;54.550;18.526;2023-07-08T02:33:14;4.68;;;1.52;;
66487;SDS011;53304;54.550;18.526;2023-07-08T02:35:42;4.15;;;1.60;;
66487;SDS011;53304;54.550;18.526;2023-07-08T02:38:10;4.97;;;1.30;;
66487;SDS011;53304;54.550;18.526;2023-07-08T02:40:36;3.60;;;1.50;;
66487;SDS011;53304;54.550;18.526;2023-07-08T02:43:04;2.67;;;1.42;;
66487;SDS011;53304;54.550;18.526;2023-07-08T02:45:29;4.07;;;1.60;;
66487;SDS011;53304;54.550;18.526;2023-07-08T02:47:57;8.43;;;1.80;;
66487;SDS011;53304;54.550;18.526;2023-07-08T02:50:22;4.05;;;1.38;;
66487;SDS011;53304;54.550;18.526;2023-07-08T02:52:49;4.10;;;1.50;;
66487;SDS011;53304;54.550;18.526;2023-07-08T02:55:17;2.50;;;1.60;;
66487;SDS011;53304;54.550;18.526;2023-07-08T02:57:42;4.05;;;1.50;;
66487;SDS011;53304;54.550;18.526;2023-07-08T03:00:10;3.90;;;1.40;;
66487;SDS011;53304;54.550;18.526;2023-07-08T03:02:37;4.40;;;1.50;;
66487;SDS011;53304;54.550;18.526;2023-07-08T03:05:02;4.32;;;1.38;;
66487;SDS011;53304;54.550;18.526;2023-07-08T03:07:30;3.72;;;1.50;;
66487;SDS011;53304;54.550;18.526;2023-07-08T03:09:56;3.78;;;1.40;;
66487;SDS011;53304;54.550;18.526;2023-07-08T03:12:21;4.35;;;1.60;;
66487;SDS011;53304;54.550;18.526;2023-07-08T03:14:46;2.30;;;1.50;;
66487;SDS011;53304;54.550;18.526;2023-07-08T03:17:12;5.47;;;1.80;;
66487;SDS011;53304;54.550;18.526;2023-07-08T03:19:37;3.78;;;1.70;;
66487;SDS011;53304;54.550;18.526;2023-07-08T03:22:03;2.88;;;1.80;;
66487;SDS011;53304;54.550;18.526;2023-07-08T03:24:32;4.82;;;1.60;;
66487;SDS011;53304;54.550;18.526;2023-07-08T03:27:00;4.60;;;1.40;;
66487;SDS011;53304;54.550;18.526;2023-07-08T03:29:30;2.17;;;1.48;;
66487;SDS011;53304;54.550;18.526;2023-07-08T03:31:57;2.95;;;1.55;;
66487;SDS011;53304;54.550;18.526;2023-07-08T03:34:28;3.13;;;1.58;;
66487;SDS011;53304;54.550;18.526;2023-07-08T03:36:58;4.93;;;1.60;;
66487;SDS011;53304;54.550;18.526;2023-07-08T03:39:23;4.95;;;1.65;;
66487;SDS011;53304;54.550;18.526;2023-07-08T03:41:52;7.28;;;1.70;;
66487;SDS011;53304;54.550;18.526;2023-07-08T03:44:25;4.70;;;1.42;;
66487;SDS011;53304;54.550;18.526;2023-07-08T03:46:54;3.13;;;1.60;;
66487;SDS011;53304;54.550;18.526;2023-07-08T03:49:22;3.40;;;1.48;;
66487;SDS011;53304;54.550;18.526;2023-07-08T03:51:53;2.83;;;1.50;;
66487;SDS011;53304;54.550;18.526;2023-07-08T03:54:22;4.22;;;1.58;;
66487;SDS011;53304;54.550;18.526;2023-07-08T03:56:51;2.75;;;1.60;;
66487;SDS011;53304;54.550;18.526;2023-07-08T03:59:21;3.03;;;1.50;;
66487;SDS011;53304;54.550;18.526;2023-07-08T04:01:49;5.10;;;1.60;;
66487;SDS011;53304;54.550;18.526;2023-07-08T04:04:17;3.08;;;1.50;;
66487;SDS011;53304;54.550;18.526;2023-07-08T04:06:43;3.58;;;1.40;;
66487;SDS011;53304;54.550;18.526;2023-07-08T04:09:11;3.05;;;1.40;;
66487;SDS011;53304;54.550;18.526;2023-07-08T04:11:38;2.25;;;1.30;;
66487;SDS011;53304;54.550;18.526;2023-07-08T04:14:07;2.83;;;1.40;;
66487;SDS011;53304;54.550;18.526;2023-07-08T04:16:44;4.72;;;1.55;;
66487;SDS011;53304;54.550;18.526;2023-07-08T04:19:12;2.72;;;1.60;;
66487;SDS011;53304;54.550;18.526;2023-07-08T04:21:39;2.95;;;1.40;;
66487;SDS011;53304;54.550;18.526;2023-07-08T04:24:05;5.70;;;1.75;;
66487;SDS011;53304;54.550;18.526;2023-07-08T04:26:34;2.88;;;1.50;;
66487;SDS011;53304;54.550;18.526;2023-07-08T04:29:03;3.03;;;1.60;;
66487;SDS011;53304;54.550;18.526;2023-07-08T04:31:33;3.88;;;1.60;;
66487;SDS011;53304;54.550;18.526;2023-07-08T04:34:01;2.45;;;1.42;;
66487;SDS011;53304;54.550;18.526;2023-07-08T04:38:56;2.72;;;1.55;;
66487;SDS011;53304;54.550;18.526;2023-07-08T04:41:23;3.00;;;1.70;;
66487;SDS011;53304;54.550;18.526;2023-07-08T04:43:51;3.28;;;1.20;;
66487;SDS011;53304;54.550;18.526;2023-07-08T04:49:07;2.25;;;1.50;;
66487;SDS011;53304;54.550;18.526;2023-07-08T04:51:34;3.38;;;1.65;;
66487;SDS011;53304;54.550;18.526;2023-07-08T04:54:00;2.97;;;1.45;;
66487;SDS011;53304;54.550;18.526;2023-07-08T04:56:26;2.75;;;1.52;;
66487;SDS011;53304;54.550;18.526;2023-07-08T04:59:06;4.68;;;1.58;;
66487;SDS011;53304;54.550;18.526;2023-07-08T05:01:34;2.42;;;1.30;;
66487;SDS011;53304;54.550;18.526;2023-07-08T05:04:05;7.18;;;2.10;;
66487;SDS011;53304;54.550;18.526;2023-07-08T05:06:31;6.80;;;1.65;;
66487;SDS011;53304;54.550;18.526;2023-07-08T05:09:00;9.73;;;2.13;;
66487;SDS011;53304;54.550;18.526;2023-07-08T05:11:26;5.88;;;2.00;;
66487;SDS011;53304;54.550;18.526;2023-07-08T05:13:52;4.60;;;2.33;;
66487;SDS011;53304;54.550;18.526;2023-07-08T05:16:20;9.80;;;1.95;;
66487;SDS011;53304;54.550;18.526;2023-07-08T05:18:48;3.50;;;1.90;;
66487;SDS011;53304;54.550;18.526;2023-07-08T05:21:14;6.22;;;1.73;;
66487;SDS011;53304;54.550;18.526;2023-07-08T05:23:44;6.03;;;2.13;;
66487;SDS011;53304;54.550;18.526;2023-07-08T05:26:09;5.53;;;1.70;;
66487;SDS011;53304;54.550;18.526;2023-07-08T05:28:35;3.20;;;1.70;;
66487;SDS011;53304;54.550;18.526;2023-07-08T05:31:03;6.00;;;2.42;;
66487;SDS011;53304;54.550;18.526;2023-07-08T05:33:30;7.10;;;2.15;;
66487;SDS011;53304;54.550;18.526;2023-07-08T05:35:58;4.75;;;2.00;;
66487;SDS011;53304;54.550;18.526;2023-07-08T05:38:25;4.20;;;1.90;;
66487;SDS011;53304;54.550;18.526;2023-07-08T05:40:53;5.60;;;2.15;;
66487;SDS011;53304;54.550;18.526;2023-07-08T05:43:20;9.63;;;2.75;;
66487;SDS011;53304;54.550;18.526;2023-07-08T05:45:46;8.80;;;2.63;;
66487;SDS011;53304;54.550;18.526;2023-07-08T05:48:16;11.15;;;2.63;;
66487;SDS011;53304;54.550;18.526;2023-07-08T05:50:41;10.38;;;2.35;;
66487;SDS011;53304;54.550;18.526;2023-07-08T05:53:09;5.25;;;2.00;;
66487;SDS011;53304;54.550;18.526;2023-07-08T05:55:40;11.23;;;2.47;;
66487;SDS011;53304;54.550;18.526;2023-07-08T05:58:07;15.52;;;2.40;;
66487;SDS011;53304;54.550;18.526;2023-07-08T06:00:36;14.02;;;2.10;;
66487;SDS011;53304;54.550;18.526;2023-07-08T06:03:06;6.63;;;1.83;;
66487;SDS011;53304;54.550;18.526;2023-07-08T06:05:36;5.32;;;1.70;;
66487;SDS011;53304;54.550;18.526;2023-07-08T06:08:07;3.75;;;1.63;;
66487;SDS011;53304;54.550;18.526;2023-07-08T06:10:33;3.33;;;1.70;;
66487;SDS011;53304;54.550;18.526;2023-07-08T06:12:59;2.45;;;1.48;;
66487;SDS011;53304;54.550;18.526;2023-07-08T06:15:25;3.30;;;1.50;;
66487;SDS011;53304;54.550;18.526;2023-07-08T06:17:52;3.63;;;1.90;;
66487;SDS011;53304;54.550;18.526;2023-07-08T06:20:20;3.42;;;1.48;;
66487;SDS011;53304;54.550;18.526;2023-07-08T06:22:46;6.32;;;2.13;;
66487;SDS011;53304;54.550;18.526;2023-07-08T06:25:13;3.25;;;1.73;;
66487;SDS011;53304;54.550;18.526;2023-07-08T06:27:39;2.92;;;1.75;;
66487;SDS011;53304;54.550;18.526;2023-07-08T06:30:07;4.43;;;2.10;;
66487;SDS011;53304;54.550;18.526;2023-07-08T06:32:33;6.45;;;2.20;;
66487;SDS011;53304;54.550;18.526;2023-07-08T06:34:58;3.55;;;1.60;;
66487;SDS011;53304;54.550;18.526;2023-07-08T06:37:24;3.47;;;1.58;;
66487;SDS011;53304;54.550;18.526;2023-07-08T06:39:57;2.95;;;1.80;;
66487;SDS011;53304;54.550;18.526;2023-07-08T06:42:22;5.07;;;1.73;;
66487;SDS011;53304;54.550;18.526;2023-07-08T06:44:48;3.83;;;1.90;;
66487;SDS011;53304;54.550;18.526;2023-07-08T06:47:19;6.68;;;1.95;;
66487;SDS011;53304;54.550;18.526;2023-07-08T06:49:50;9.43;;;2.22;;
66487;SDS011;53304;54.550;18.526;2023-07-08T06:52:17;3.63;;;1.83;;
66487;SDS011;53304;54.550;18.526;2023-07-08T06:54:43;6.30;;;1.90;;
66487;SDS011;53304;54.550;18.526;2023-07-08T06:57:10;3.58;;;1.70;;
66487;SDS011;53304;54.550;18.526;2023-07-08T06:59:40;3.70;;;2.13;;
66487;SDS011;53304;54.550;18.526;2023-07-08T07:02:07;3.40;;;1.70;;
66487;SDS011;53304;54.550;18.526;2023-07-08T07:04:35;4.15;;;1.70;;
66487;SDS011;53304;54.550;18.526;2023-07-08T07:07:03;3.35;;;1.90;;
66487;SDS011;53304;54.550;18.526;2023-07-08T07:09:32;3.78;;;1.73;;
66487;SDS011;53304;54.550;18.526;2023-07-08T07:11:59;3.72;;;2.00;;
66487;SDS011;53304;54.550;18.526;2023-07-08T07:14:29;3.25;;;2.00;;
66487;SDS011;53304;54.550;18.526;2023-07-08T07:16:58;3.75;;;1.73;;
66487;SDS011;53304;54.550;18.526;2023-07-08T07:19:30;2.53;;;1.60;;
66487;SDS011;53304;54.550;18.526;2023-07-08T07:22:00;4.20;;;1.73;;
66487;SDS011;53304;54.550;18.526;2023-07-08T07:24:26;3.90;;;1.77;;
66487;SDS011;53304;54.550;18.526;2023-07-08T07:26:51;3.90;;;1.83;;
66487;SDS011;53304;54.550;18.526;2023-07-08T07:29:17;3.75;;;1.77;;
66487;SDS011;53304;54.550;18.526;2023-07-08T07:31:50;5.78;;;1.70;;
66487;SDS011;53304;54.550;18.526;2023-07-08T07:34:19;3.05;;;1.75;;
66487;SDS011;53304;54.550;18.526;2023-07-08T07:36:45;4.32;;;1.80;;
66487;SDS011;53304;54.550;18.526;2023-07-08T07:39:13;2.83;;;1.60;;
66487;SDS011;53304;54.550;18.526;2023-07-08T07:41:41;3.53;;;1.98;;
66487;SDS011;53304;54.550;18.526;2023-07-08T07:44:08;2.38;;;1.60;;
66487;SDS011;53304;54.550;18.526;2023-07-08T07:46:36;3.20;;;1.70;;
66487;SDS011;53304;54.550;18.526;2023-07-08T07:49:04;6.68;;;1.90;;
66487;SDS011;53304;54.550;18.526;2023-07-08T07:51:29;5.18;;;2.00;;
66487;SDS011;53304;54.550;18.526;2023-07-08T07:53:57;3.72;;;1.83;;
66487;SDS011;53304;54.550;18.526;2023-07-08T07:56:22;3.72;;;1.73;;
66487;SDS011;53304;54.550;18.526;2023-07-08T07:58:50;4.35;;;2.10;;
66487;SDS011;53304;54.550;18.526;2023-07-08T08:01:15;6.57;;;2.20;;
66487;SDS011;53304;54.550;18.526;2023-07-08T08:03:44;3.15;;;1.80;;
66487;SDS011;53304;54.550;18.526;2023-07-08T08:06:12;3.20;;;1.80;;
66487;SDS011;53304;54.550;18.526;2023-07-08T08:08:42;4.20;;;1.92;;
66487;SDS011;53304;54.550;18.526;2023-07-08T08:11:08;9.43;;;2.28;;
66487;SDS011;53304;54.550;18.526;2023-07-08T08:13:34;4.97;;;1.73;;
66487;SDS011;53304;54.550;18.526;2023-07-08T08:15:59;8.48;;;2.20;;
66487;SDS011;53304;54.550;18.526;2023-07-08T08:18:27;4.30;;;1.80;;
66487;SDS011;53304;54.550;18.526;2023-07-08T08:20:54;4.18;;;1.98;;
66487;SDS011;53304;54.550;18.526;2023-07-08T08:23:20;5.38;;;2.25;;
66487;SDS011;53304;54.550;18.526;2023-07-08T08:25:46;3.53;;;2.30;;
66487;SDS011;53304;54.550;18.526;2023-07-08T08:28:11;3.30;;;1.98;;
66487;SDS011;53304;54.550;18.526;2023-07-08T08:30:39;5.18;;;2.13;;
66487;SDS011;53304;54.550;18.526;2023-07-08T08:33:04;3.75;;;2.00;;
66487;SDS011;53304;54.550;18.526;2023-07-08T08:35:32;5.38;;;2.03;;
66487;SDS011;53304;54.550;18.526;2023-07-08T08:38:00;3.53;;;1.90;;
66487;SDS011;53304;54.550;18.526;2023-07-08T08:40:28;5.53;;;1.98;;
66487;SDS011;53304;54.550;18.526;2023-07-08T08:42:57;4.70;;;1.83;;
66487;SDS011;53304;54.550;18.526;2023-07-08T08:45:28;5.75;;;1.90;;
66487;SDS011;53304;54.550;18.526;2023-07-08T08:53:01;3.05;;;1.90;;
66487;SDS011;53304;54.550;18.526;2023-07-08T08:55:34;5.25;;;1.98;;
66487;SDS011;53304;54.550;18.526;2023-07-08T08:58:23;8.80;;;2.25;;
66487;SDS011;53304;54.550;18.526;2023-07-08T09:00:58;6.75;;;2.10;;
66487;SDS011;53304;54.550;18.526;2023-07-08T09:06:16;3.70;;;1.77;;
66487;SDS011;53304;54.550;18.526;2023-07-08T09:08:50;6.70;;;2.15;;
66487;SDS011;53304;54.550;18.526;2023-07-08T09:11:23;2.75;;;1.60;;
66487;SDS011;53304;54.550;18.526;2023-07-08T09:13:53;3.30;;;2.17;;
66487;SDS011;53304;54.550;18.526;2023-07-08T09:27:09;4.85;;;2.10;;
66487;SDS011;53304;54.550;18.526;2023-07-08T09:29:35;4.15;;;2.10;;
66487;SDS011;53304;54.550;18.526;2023-07-08T09:32:01;4.57;;;1.85;;
66487;SDS011;53304;54.550;18.526;2023-07-08T09:34:40;3.33;;;1.80;;
66487;SDS011;53304;54.550;18.526;2023-07-08T09:37:24;4.17;;;1.97;;
66487;SDS011;53304;54.550;18.526;2023-07-08T09:39:54;4.60;;;1.90;;
66487;SDS011;53304;54.550;18.526;2023-07-08T09:42:28;6.67;;;1.90;;
66487;SDS011;53304;54.550;18.526;2023-07-08T09:44:56;4.80;;;1.95;;
66487;SDS011;53304;54.550;18.526;2023-07-08T09:47:24;6.60;;;2.15;;
66487;SDS011;53304;54.550;18.526;2023-07-08T09:49:53;3.53;;;1.88;;
66487;SDS011;53304;54.550;18.526;2023-07-08T09:52:21;4.07;;;1.98;;
66487;SDS011;53304;54.550;18.526;2023-07-08T09:54:49;5.68;;;2.30;;
66487;SDS011;53304;54.550;18.526;2023-07-08T10:00:02;3.78;;;2.13;;
66487;SDS011;53304;54.550;18.526;2023-07-08T10:02:43;6.70;;;3.42;;
66487;SDS011;53304;54.550;18.526;2023-07-08T10:05:33;4.43;;;2.08;;
66487;SDS011;53304;54.550;18.526;2023-07-08T10:08:14;4.35;;;1.75;;
66487;SDS011;53304;54.550;18.526;2023-07-08T10:10:45;2.38;;;1.38;;
66487;SDS011;53304;54.550;18.526;2023-07-08T10:15:44;2.95;;;1.52;;
66487;SDS011;53304;54.550;18.526;2023-07-08T10:18:16;2.55;;;1.45;;
66487;SDS011;53304;54.550;18.526;2023-07-08T10:23:43;2.70;;;1.30;;
66487;SDS011;53304;54.550;18.526;2023-07-08T10:26:13;4.07;;;1.40;;
66487;SDS011;53304;54.550;18.526;2023-07-08T10:31:50;2.13;;;1.08;;
66487;SDS011;53304;54.550;18.526;2023-07-08T10:39:44;2.08;;;1.13;;
66487;SDS011;53304;54.550;18.526;2023-07-08T10:42:43;3.15;;;1.35;;
66487;SDS011;53304;54.550;18.526;2023-07-08T10:55:55;2.72;;;1.30;;
66487;SDS011;53304;54.550;18.526;2023-07-08T11:06:29;2.78;;;1.10;;
66487;SDS011;53304;54.550;18.526;2023-07-08T11:09:05;2.63;;;1.20;;
66487;SDS011;53304;54.550;18.526;2023-07-08T11:16:57;2.95;;;1.30;;
66487;SDS011;53304;54.550;18.526;2023-07-08T11:19:45;1.92;;;1.20;;
66487;SDS011;53304;54.550;18.526;2023-07-08T11:22:33;3.63;;;1.25;;
66487;SDS011;53304;54.550;18.526;2023-07-08T11:24:59;4.70;;;1.33;;
66487;SDS011;53304;54.550;18.526;2023-07-08T11:27:33;4.13;;;1.40;;
66487;SDS011;53304;54.550;18.526;2023-07-08T11:32:35;4.38;;;1.63;;
66487;SDS011;53304;54.550;18.526;2023-07-08T11:35:07;2.38;;;1.40;;
66487;SDS011;53304;54.550;18.526;2023-07-08T11:37:42;2.85;;;1.00;;
66487;SDS011;53304;54.550;18.526;2023-07-08T11:40:18;2.35;;;1.33;;
66487;SDS011;53304;54.550;18.526;2023-07-08T11:42:52;1.13;;;0.90;;
66487;SDS011;53304;54.550;18.526;2023-07-08T11:45:30;2.67;;;1.10;;
66487;SDS011;53304;54.550;18.526;2023-07-08T11:48:10;2.53;;;1.13;;
66487;SDS011;53304;54.550;18.526;2023-07-08T11:50:39;1.92;;;1.15;;
66487;SDS011;53304;54.550;18.526;2023-07-08T11:53:10;1.80;;;1.10;;
66487;SDS011;53304;54.550;18.526;2023-07-08T11:58:25;2.70;;;1.10;;
66487;SDS011;53304;54.550;18.526;2023-07-08T12:03:28;1.83;;;0.95;;
66487;SDS011;53304;54.550;18.526;2023-07-08T12:05:59;2.60;;;1.25;;
66487;SDS011;53304;54.550;18.526;2023-07-08T12:08:37;1.85;;;1.20;;
66487;SDS011;53304;54.550;18.526;2023-07-08T12:11:08;2.45;;;1.20;;
66487;SDS011;53304;54.550;18.526;2023-07-08T12:13:39;3.55;;;1.60;;
66487;SDS011;53304;54.550;18.526;2023-07-08T12:16:08;5.82;;;1.30;;
66487;SDS011;53304;54.550;18.526;2023-07-08T12:21:02;2.28;;;1.17;;
66487;SDS011;53304;54.550;18.526;2023-07-08T12:23:28;2.88;;;1.20;;
66487;SDS011;53304;54.550;18.526;2023-07-08T12:25:54;3.10;;;1.10;;
66487;SDS011;53304;54.550;18.526;2023-07-08T12:28:24;1.42;;;0.90;;
66487;SDS011;53304;54.550;18.526;2023-07-08T12:30:52;2.05;;;1.00;;
66487;SDS011;53304;54.550;18.526;2023-07-08T12:36:02;3.45;;;1.30;;
66487;SDS011;53304;54.550;18.526;2023-07-08T12:38:30;2.38;;;1.00;;
66487;SDS011;53304;54.550;18.526;2023-07-08T12:41:02;2.65;;;1.20;;
66487;SDS011;53304;54.550;18.526;2023-07-08T12:43:33;3.80;;;1.08;;
66487;SDS011;53304;54.550;18.526;2023-07-08T12:45:59;3.97;;;1.00;;
66487;SDS011;53304;54.550;18.526;2023-07-08T12:48:26;2.00;;;1.17;;
66487;SDS011;53304;54.550;18.526;2023-07-08T12:53:21;1.50;;;1.10;;
66487;SDS011;53304;54.550;18.526;2023-07-08T12:55:47;3.30;;;1.30;;
66487;SDS011;53304;54.550;18.526;2023-07-08T12:58:16;2.65;;;1.02;;
66487;SDS011;53304;54.550;18.526;2023-07-08T13:00:53;3.15;;;1.10;;
66487;SDS011;53304;54.550;18.526;2023-07-08T13:03:23;1.80;;;1.10;;
66487;SDS011;53304;54.550;18.526;2023-07-08T13:05:55;3.85;;;1.30;;
66487;SDS011;53304;54.550;18.526;2023-07-08T13:08:26;3.55;;;1.20;;
66487;SDS011;53304;54.550;18.526;2023-07-08T13:11:00;1.58;;;1.05;;
66487;SDS011;53304;54.550;18.526;2023-07-08T13:13:30;3.90;;;1.42;;
66487;SDS011;53304;54.550;18.526;2023-07-08T13:15:57;2.78;;;0.98;;
66487;SDS011;53304;54.550;18.526;2023-07-08T13:18:33;3.22;;;1.38;;
66487;SDS011;53304;54.550;18.526;2023-07-08T13:21:00;2.10;;;1.30;;
66487;SDS011;53304;54.550;18.526;2023-07-08T13:23:27;2.08;;;1.13;;
66487;SDS011;53304;54.550;18.526;2023-07-08T13:25:53;3.53;;;1.30;;
66487;SDS011;53304;54.550;18.526;2023-07-08T13:28:22;2.83;;;1.25;;
66487;SDS011;53304;54.550;18.526;2023-07-08T13:30:53;2.03;;;1.17;;
66487;SDS011;53304;54.550;18.526;2023-07-08T13:33:19;3.72;;;1.30;;
66487;SDS011;53304;54.550;18.526;2023-07-08T13:35:45;2.25;;;1.20;;
66487;SDS011;53304;54.550;18.526;2023-07-08T13:38:15;2.05;;;1.40;;
66487;SDS011;53304;54.550;18.526;2023-07-08T13:40:45;3.50;;;1.38;;
66487;SDS011;53304;54.550;18.526;2023-07-08T13:43:22;2.38;;;1.30;;
66487;SDS011;53304;54.550;18.526;2023-07-08T13:45:49;4.97;;;1.30;;
66487;SDS011;53304;54.550;18.526;2023-07-08T13:48:18;3.55;;;1.55;;
66487;SDS011;53304;54.550;18.526;2023-07-08T13:51:29;2.63;;;1.48;;
66487;SDS011;53304;54.550;18.526;2023-07-08T13:54:00;3.35;;;1.40;;
66487;SDS011;53304;54.550;18.526;2023-07-08T13:56:29;3.40;;;1.50;;
66487;SDS011;53304;54.550;18.526;2023-07-08T13:59:07;3.10;;;1.40;;
66487;SDS011;53304;54.550;18.526;2023-07-08T14:01:37;2.47;;;1.10;;
66487;SDS011;53304;54.550;18.526;2023-07-08T14:04:05;2.30;;;1.30;;
66487;SDS011;53304;54.550;18.526;2023-07-08T14:06:36;3.33;;;1.40;;
66487;SDS011;53304;54.550;18.526;2023-07-08T14:09:09;2.35;;;1.20;;
66487;SDS011;53304;54.550;18.526;2023-07-08T14:11:37;2.83;;;1.33;;
66487;SDS011;53304;54.550;18.526;2023-07-08T14:14:05;3.72;;;1.55;;
66487;SDS011;53304;54.550;18.526;2023-07-08T14:16:31;2.88;;;1.30;;
66487;SDS011;53304;54.550;18.526;2023-07-08T14:19:05;2.35;;;1.10;;
66487;SDS011;53304;54.550;18.526;2023-07-08T14:21:33;1.88;;;1.23;;
66487;SDS011;53304;54.550;18.526;2023-07-08T14:24:04;2.05;;;1.20;;
66487;SDS011;53304;54.550;18.526;2023-07-08T14:26:35;2.28;;;1.35;;
66487;SDS011;53304;54.550;18.526;2023-07-08T14:29:02;2.20;;;1.10;;
66487;SDS011;53304;54.550;18.526;2023-07-08T14:31:35;2.33;;;1.30;;
66487;SDS011;53304;54.550;18.526;2023-07-08T14:34:05;2.58;;;1.50;;
66487;SDS011;53304;54.550;18.526;2023-07-08T14:36:32;1.88;;;1.40;;
66487;SDS011;53304;54.550;18.526;2023-07-08T14:38:58;3.70;;;1.33;;
66487;SDS011;53304;54.550;18.526;2023-07-08T14:41:24;2.08;;;1.23;;
66487;SDS011;53304;54.550;18.526;2023-07-08T14:43:50;3.40;;;1.40;;
66487;SDS011;53304;54.550;18.526;2023-07-08T14:46:15;4.38;;;1.55;;
66487;SDS011;53304;54.550;18.526;2023-07-08T14:48:44;5.15;;;1.58;;
66487;SDS011;53304;54.550;18.526;2023-07-08T14:51:09;4.85;;;1.95;;
66487;SDS011;53304;54.550;18.526;2023-07-08T14:53:35;6.10;;;2.20;;
66487;SDS011;53304;54.550;18.526;2023-07-08T14:56:00;10.63;;;2.00;;
66487;SDS011;53304;54.550;18.526;2023-07-08T14:58:40;7.32;;;2.28;;
66487;SDS011;53304;54.550;18.526;2023-07-08T15:01:11;4.03;;;1.73;;
66487;SDS011;53304;54.550;18.526;2023-07-08T15:03:46;5.35;;;1.73;;
66487;SDS011;53304;54.550;18.526;2023-07-08T15:06:13;4.55;;;1.55;;
66487;SDS011;53304;54.550;18.526;2023-07-08T15:08:39;4.43;;;1.30;;
66487;SDS011;53304;54.550;18.526;2023-07-08T15:11:04;5.70;;;1.45;;
66487;SDS011;53304;54.550;18.526;2023-07-08T15:13:36;5.53;;;1.45;;
66487;SDS011;53304;54.550;18.526;2023-07-08T15:16:10;4.35;;;1.55;;
66487;SDS011;53304;54.550;18.526;2023-07-08T15:18:38;3.50;;;1.65;;
66487;SDS011;53304;54.550;18.526;2023-07-08T15:21:03;2.92;;;1.50;;
66487;SDS011;53304;54.550;18.526;2023-07-08T15:23:29;3.13;;;1.50;;
66487;SDS011;53304;54.550;18.526;2023-07-08T15:25:57;2.53;;;1.27;;
66487;SDS011;53304;54.550;18.526;2023-07-08T15:31:22;4.88;;;1.63;;
66487;SDS011;53304;54.550;18.526;2023-07-08T15:33:52;2.35;;;1.40;;
66487;SDS011;53304;54.550;18.526;2023-07-08T15:36:22;3.72;;;1.65;;
66487;SDS011;53304;54.550;18.526;2023-07-08T15:38:50;5.80;;;1.83;;
66487;SDS011;53304;54.550;18.526;2023-07-08T15:41:19;5.38;;;1.60;;
66487;SDS011;53304;54.550;18.526;2023-07-08T15:43:46;2.97;;;1.60;;
66487;SDS011;53304;54.550;18.526;2023-07-08T15:46:14;2.10;;;1.40;;
66487;SDS011;53304;54.550;18.526;2023-07-08T15:48:42;4.53;;;1.50;;
66487;SDS011;53304;54.550;18.526;2023-07-08T15:51:08;3.50;;;1.60;;
66487;SDS011;53304;54.550;18.526;2023-07-08T15:53:40;3.38;;;1.67;;
66487;SDS011;53304;54.550;18.526;2023-07-08T15:56:08;2.83;;;1.38;;
66487;SDS011;53304;54.550;18.526;2023-07-08T15:58:41;2.72;;;1.40;;
66487;SDS011;53304;54.550;18.526;2023-07-08T16:01:07;4.95;;;1.58;;
66487;SDS011;53304;54.550;18.526;2023-07-08T16:03:47;3.67;;;1.45;;
66487;SDS011;53304;54.550;18.526;2023-07-08T16:06:16;2.78;;;1.70;;
66487;SDS011;53304;54.550;18.526;2023-07-08T16:08:45;3.92;;;1.60;;
66487;SDS011;53304;54.550;18.526;2023-07-08T16:11:15;4.05;;;1.58;;
66487;SDS011;53304;54.550;18.526;2023-07-08T16:13:46;3.28;;;1.80;;
66487;SDS011;53304;54.550;18.526;2023-07-08T16:16:14;2.97;;;1.45;;
66487;SDS011;53304;54.550;18.526;2023-07-08T16:18:40;2.20;;;1.38;;
66487;SDS011;53304;54.550;18.526;2023-07-08T16:21:07;3.05;;;1.52;;